sensor_id;sensor_type;location;lat;lon;timestamp;pressure;altitude;pressure_sealevel;temperature;humidity
36932;BME280;22847;42.654;23.370;2023-02-14T00:01:21;96101.53;;;5.51;56.40
36932;BME280;22847;42.654;23.370;2023-02-14T00:03:46;96020.41;;;5.36;56.36
36932;BME280;22847;42.654;23.370;2023-02-14T00:06:14;96097.41;;;5.64;56.11
36932;BME280;22847;42.654;23.370;2023-02-14T00:08:40;96063.63;;;5.83;55.43
36932;BME280;22847;42.654;23.370;2023-02-14T00:11:09;95799.28;;;4.17;55.69
36932;BME280;22847;42.654;23.370;2023-02-14T00:13:34;96068.28;;;5.76;55.68
36932;BME280;22847;42.654;23.370;2023-02-14T00:16:00;96040.81;;;5.58;55.47
36932;BME280;22847;42.654;23.370;2023-02-14T00:18:25;96060.53;;;5.76;55.17
36932;BME280;22847;42.654;23.370;2023-02-14T00:21:09;95887.88;;;4.34;56.30
36932;BME280;22847;42.654;23.370;2023-02-14T00:23:35;96003.63;;;4.95;56.58
36932;BME280;22847;42.654;23.370;2023-02-14T00:26:00;96094.78;;;5.49;56.60
36932;BME280;22847;42.654;23.370;2023-02-14T00:28:26;96021.44;;;5.17;56.27
36932;BME280;22847;42.654;23.370;2023-02-14T00:30:51;95945.50;;;4.52;56.00
36932;BME280;22847;42.654;23.370;2023-02-14T00:33:16;96069.22;;;5.43;56.74
36932;BME280;22847;42.654;23.370;2023-02-14T00:35:42;95823.63;;;3.95;56.93
36932;BME280;22847;42.654;23.370;2023-02-14T00:38:07;96020.69;;;5.15;57.02
36932;BME280;22847;42.654;23.370;2023-02-14T00:40:32;96069.00;;;5.47;57.13
36932;BME280;22847;42.654;23.370;2023-02-14T00:42:58;95862.47;;;4.10;57.78
36932;BME280;22847;42.654;23.370;2023-02-14T00:45:23;96051.06;;;5.60;56.85
36932;BME280;22847;42.654;23.370;2023-02-14T00:47:49;96058.03;;;5.42;57.52
36932;BME280;22847;42.654;23.370;2023-02-14T00:50:14;96053.34;;;5.33;57.66
36932;BME280;22847;42.654;23.370;2023-02-14T00:52:39;96047.91;;;5.22;58.08
36932;BME280;22847;42.654;23.370;2023-02-14T00:55:05;95816.41;;;3.85;57.72
36932;BME280;22847;42.654;23.370;2023-02-14T00:57:30;96035.06;;;5.03;58.10
36932;BME280;22847;42.654;23.370;2023-02-14T00:59:55;95857.16;;;3.95;58.43
36932;BME280;22847;42.654;23.370;2023-02-14T01:02:21;95974.94;;;4.82;58.38
36932;BME280;22847;42.654;23.370;2023-02-14T01:04:46;96046.69;;;5.12;58.07
36932;BME280;22847;42.654;23.370;2023-02-14T01:07:12;96029.50;;;5.11;58.15
36932;BME280;22847;42.654;23.370;2023-02-14T01:09:37;96025.00;;;5.14;58.23
36932;BME280;22847;42.654;23.370;2023-02-14T01:12:02;96062.72;;;5.18;57.82
36932;BME280;22847;42.654;23.370;2023-02-14T01:14:28;95948.69;;;4.74;57.86
36932;BME280;22847;42.654;23.370;2023-02-14T01:16:53;95782.41;;;3.77;57.57
36932;BME280;22847;42.654;23.370;2023-02-14T01:19:19;96032.50;;;5.36;57.58
36932;BME280;22847;42.654;23.370;2023-02-14T01:21:44;95934.34;;;4.34;57.54
36932;BME280;22847;42.654;23.370;2023-02-14T01:24:10;95987.72;;;5.03;57.59
36932;BME280;22847;42.654;23.370;2023-02-14T01:26:36;95430.91;;;1.59;57.48
36932;BME280;22847;42.654;23.370;2023-02-14T01:29:04;96019.06;;;5.29;58.17
36932;BME280;22847;42.654;23.370;2023-02-14T01:31:31;95860.91;;;4.40;57.18
36932;BME280;22847;42.654;23.370;2023-02-14T01:33:58;95920.31;;;4.73;57.58
36932;BME280;22847;42.654;23.370;2023-02-14T01:36:26;95737.38;;;3.49;57.64
36932;BME280;22847;42.654;23.370;2023-02-14T01:38:59;95759.72;;;3.66;57.62
36932;BME280;22847;42.654;23.370;2023-02-14T01:41:27;95994.69;;;5.18;57.54
36932;BME280;22847;42.654;23.370;2023-02-14T01:46:19;95719.38;;;3.48;57.61
36932;BME280;22847;42.654;23.370;2023-02-14T01:48:44;96039.69;;;5.14;57.97
36932;BME280;22847;42.654;23.370;2023-02-14T01:51:11;95677.53;;;3.08;58.06
36932;BME280;22847;42.654;23.370;2023-02-14T01:53:37;95913.44;;;4.56;58.52
36932;BME280;22847;42.654;23.370;2023-02-14T01:56:07;95986.16;;;5.16;58.18
36932;BME280;22847;42.654;23.370;2023-02-14T01:58:37;95973.19;;;5.00;58.15
36932;BME280;22847;42.654;23.370;2023-02-14T02:01:04;95981.06;;;4.81;58.20
36932;BME280;22847;42.654;23.370;2023-02-14T02:03:34;95741.69;;;3.49;58.04
36932;BME280;22847;42.654;23.370;2023-02-14T02:06:07;95977.44;;;5.01;58.01
36932;BME280;22847;42.654;23.370;2023-02-14T02:08:40;95989.44;;;5.02;57.68
36932;BME280;22847;42.654;23.370;2023-02-14T02:11:07;95892.19;;;4.34;58.35
36932;BME280;22847;42.654;23.370;2023-02-14T02:13:32;96010.28;;;4.99;58.51
36932;BME280;22847;42.654;23.370;2023-02-14T02:28:10;96017.34;;;5.13;57.71
36932;BME280;22847;42.654;23.370;2023-02-14T02:34:12;95960.63;;;5.10;57.71
36932;BME280;22847;42.654;23.370;2023-02-14T02:39:57;95956.44;;;5.07;57.86
36932;BME280;22847;42.654;23.370;2023-02-14T02:45:56;95948.28;;;4.99;58.08
36932;BME280;22847;42.654;23.370;2023-02-14T02:48:53;95939.94;;;5.10;57.43
36932;BME280;22847;42.654;23.370;2023-02-14T02:51:46;95877.53;;;4.84;57.53
36932;BME280;22847;42.654;23.370;2023-02-14T02:54:39;95709.97;;;3.81;57.00
36932;BME280;22847;42.654;23.370;2023-02-14T02:57:12;95959.63;;;5.12;57.18
36932;BME280;22847;42.654;23.370;2023-02-14T02:59:42;95970.03;;;5.11;57.21
36932;BME280;22847;42.654;23.370;2023-02-14T03:02:15;95724.06;;;3.91;56.74
36932;BME280;22847;42.654;23.370;2023-02-14T03:04:54;95957.53;;;5.19;57.03
36932;BME280;22847;42.654;23.370;2023-02-14T03:07:34;95919.91;;;4.98;57.24
36932;BME280;22847;42.654;23.370;2023-02-14T03:10:05;95955.19;;;4.99;57.80
36932;BME280;22847;42.654;23.370;2023-02-14T03:21:01;95988.31;;;5.08;57.70
36932;BME280;22847;42.654;23.370;2023-02-14T03:23:34;95988.78;;;4.99;58.03
36932;BME280;22847;42.654;23.370;2023-02-14T03:26:26;96014.16;;;5.08;57.72
36932;BME280;22847;42.654;23.370;2023-02-14T03:29:03;95993.03;;;4.82;58.42
36932;BME280;22847;42.654;23.370;2023-02-14T03:32:19;95776.63;;;3.89;58.05
36932;BME280;22847;42.654;23.370;2023-02-14T03:37:19;95925.19;;;4.79;58.57
36932;BME280;22847;42.654;23.370;2023-02-14T03:40:33;95926.09;;;4.78;58.49
36932;BME280;22847;42.654;23.370;2023-02-14T03:43:09;95877.88;;;4.61;57.89
36932;BME280;22847;42.654;23.370;2023-02-14T03:48:09;95833.97;;;4.61;56.72
36932;BME280;22847;42.654;23.370;2023-02-14T03:50:36;95888.19;;;4.78;57.54
36932;BME280;22847;42.654;23.370;2023-02-14T03:53:03;95670.78;;;3.40;57.70
36932;BME280;22847;42.654;23.370;2023-02-14T03:55:36;95783.56;;;4.21;57.34
36932;BME280;22847;42.654;23.370;2023-02-14T03:58:15;95945.44;;;5.04;57.29
36932;BME280;22847;42.654;23.370;2023-02-14T04:00:45;95953.69;;;5.10;57.24
36932;BME280;22847;42.654;23.370;2023-02-14T04:03:14;95949.13;;;5.15;56.86
36932;BME280;22847;42.654;23.370;2023-02-14T04:05:41;95897.00;;;5.07;56.89
36932;BME280;22847;42.654;23.370;2023-02-14T04:08:11;95908.53;;;4.84;57.45
36932;BME280;22847;42.654;23.370;2023-02-14T04:10:44;95891.19;;;4.86;57.59
36932;BME280;22847;42.654;23.370;2023-02-14T04:13:09;95886.84;;;4.87;57.62
36932;BME280;22847;42.654;23.370;2023-02-14T04:15:35;95828.25;;;4.39;57.55
36932;BME280;22847;42.654;23.370;2023-02-14T04:18:00;95885.53;;;4.80;57.83
36932;BME280;22847;42.654;23.370;2023-02-14T04:20:44;95681.09;;;3.40;57.87
36932;BME280;22847;42.654;23.370;2023-02-14T04:23:09;95908.28;;;4.56;57.95
36932;BME280;22847;42.654;23.370;2023-02-14T04:25:35;95891.16;;;4.71;58.15
36932;BME280;22847;42.654;23.370;2023-02-14T04:28:03;95884.22;;;4.88;57.61
36932;BME280;22847;42.654;23.370;2023-02-14T04:30:29;95861.47;;;4.62;58.24
36932;BME280;22847;42.654;23.370;2023-02-14T04:32:54;95684.81;;;3.69;57.29
36932;BME280;22847;42.654;23.370;2023-02-14T04:35:19;95911.72;;;4.89;57.30
36932;BME280;22847;42.654;23.370;2023-02-14T04:37:45;95893.63;;;4.89;57.69
36932;BME280;22847;42.654;23.370;2023-02-14T04:40:10;95843.44;;;4.45;57.59
36932;BME280;22847;42.654;23.370;2023-02-14T04:42:36;95872.19;;;4.72;57.66
36932;BME280;22847;42.654;23.370;2023-02-14T04:45:02;95885.34;;;4.67;57.97
36932;BME280;22847;42.654;23.370;2023-02-14T04:47:27;95763.03;;;4.02;57.52
36932;BME280;22847;42.654;23.370;2023-02-14T04:49:52;95666.75;;;3.52;57.44
36932;BME280;22847;42.654;23.370;2023-02-14T04:52:18;95880.53;;;4.92;56.93
36932;BME280;22847;42.654;23.370;2023-02-14T04:54:43;95863.72;;;4.85;57.07
36932;BME280;22847;42.654;23.370;2023-02-14T04:57:09;95817.28;;;4.51;57.02
36932;BME280;22847;42.654;23.370;2023-02-14T04:59:34;95863.41;;;4.74;57.04
36932;BME280;22847;42.654;23.370;2023-02-14T05:01:59;95682.06;;;3.38;57.85
36932;BME280;22847;42.654;23.370;2023-02-14T05:04:25;95583.59;;;2.81;57.90
36932;BME280;22847;42.654;23.370;2023-02-14T05:06:50;95586.00;;;2.67;58.74
36932;BME280;22847;42.654;23.370;2023-02-14T05:09:16;95577.88;;;2.57;58.10
36932;BME280;22847;42.654;23.370;2023-02-14T05:11:41;95904.34;;;4.49;58.43
36932;BME280;22847;42.654;23.370;2023-02-14T05:14:07;95704.03;;;3.79;57.51
36932;BME280;22847;42.654;23.370;2023-02-14T05:16:32;95864.72;;;4.66;58.00
36932;BME280;22847;42.654;23.370;2023-02-14T05:18:58;95899.31;;;4.63;58.46
36932;BME280;22847;42.654;23.370;2023-02-14T05:21:23;95853.50;;;4.82;57.38
36932;BME280;22847;42.654;23.370;2023-02-14T05:23:49;95868.09;;;4.83;57.58
36932;BME280;22847;42.654;23.370;2023-02-14T05:26:14;95871.16;;;4.74;57.22
36932;BME280;22847;42.654;23.370;2023-02-14T05:28:40;95862.31;;;4.63;57.70
36932;BME280;22847;42.654;23.370;2023-02-14T05:31:07;95918.09;;;4.82;56.89
36932;BME280;22847;42.654;23.370;2023-02-14T05:33:33;95887.50;;;4.75;57.40
36932;BME280;22847;42.654;23.370;2023-02-14T05:35:58;95867.69;;;4.75;57.04
36932;BME280;22847;42.654;23.370;2023-02-14T05:38:25;95889.97;;;4.61;57.89
36932;BME280;22847;42.654;23.370;2023-02-14T05:40:50;95863.19;;;4.79;56.62
36932;BME280;22847;42.654;23.370;2023-02-14T05:43:16;95864.38;;;4.56;57.36
36932;BME280;22847;42.654;23.370;2023-02-14T05:45:41;95872.63;;;4.95;56.66
36932;BME280;22847;42.654;23.370;2023-02-14T05:48:06;95861.44;;;4.79;57.18
36932;BME280;22847;42.654;23.370;2023-02-14T05:50:32;95903.44;;;4.83;57.10
36932;BME280;22847;42.654;23.370;2023-02-14T05:52:57;95714.28;;;4.14;56.97
36932;BME280;22847;42.654;23.370;2023-02-14T05:55:23;95865.91;;;5.24;56.61
36932;BME280;22847;42.654;23.370;2023-02-14T05:57:50;95854.97;;;5.19;55.61
36932;BME280;22847;42.654;23.370;2023-02-14T06:00:16;95862.56;;;5.07;56.66
36932;BME280;22847;42.654;23.370;2023-02-14T06:02:41;95624.00;;;3.81;56.91
36932;BME280;22847;42.654;23.370;2023-02-14T06:05:07;95615.72;;;3.74;55.92
36932;BME280;22847;42.654;23.370;2023-02-14T06:07:32;95848.47;;;5.28;55.89
36932;BME280;22847;42.654;23.370;2023-02-14T06:09:58;95863.81;;;6.94;53.63
36932;BME280;22847;42.654;23.370;2023-02-14T06:12:23;95753.75;;;7.12;50.08
36932;BME280;22847;42.654;23.370;2023-02-14T06:14:49;95760.16;;;8.63;46.29
36932;BME280;22847;42.654;23.370;2023-02-14T06:17:14;95650.47;;;9.06;43.14
36932;BME280;22847;42.654;23.370;2023-02-14T06:19:39;95872.34;;;10.63;41.99
36932;BME280;22847;42.654;23.370;2023-02-14T06:22:05;95760.09;;;10.07;41.78
36932;BME280;22847;42.654;23.370;2023-02-14T06:24:30;95655.72;;;8.82;41.78
36932;BME280;22847;42.654;23.370;2023-02-14T06:26:57;95761.97;;;9.94;41.87
36932;BME280;22847;42.654;23.370;2023-02-14T06:29:23;95909.91;;;11.40;39.48
36932;BME280;22847;42.654;23.370;2023-02-14T06:31:48;95733.50;;;9.80;40.82
36932;BME280;22847;42.654;23.370;2023-02-14T06:34:14;95860.41;;;9.78;42.33
36932;BME280;22847;42.654;23.370;2023-02-14T06:36:39;95651.13;;;7.35;44.99
36932;BME280;22847;42.654;23.370;2023-02-14T06:39:04;95861.22;;;8.42;46.27
36932;BME280;22847;42.654;23.370;2023-02-14T06:41:30;95864.03;;;8.00;47.77
36932;BME280;22847;42.654;23.370;2023-02-14T06:43:55;95624.28;;;5.72;49.52
36932;BME280;22847;42.654;23.370;2023-02-14T06:46:21;95639.72;;;5.74;49.98
36932;BME280;22847;42.654;23.370;2023-02-14T06:48:46;95861.56;;;7.16;50.58
36932;BME280;22847;42.654;23.370;2023-02-14T06:51:11;95864.69;;;7.36;50.22
36932;BME280;22847;42.654;23.370;2023-02-14T06:53:37;95846.53;;;7.89;48.92
36932;BME280;22847;42.654;23.370;2023-02-14T06:56:03;95828.25;;;8.43;47.02
36932;BME280;22847;42.654;23.370;2023-02-14T06:58:28;95879.63;;;8.65;46.85
36932;BME280;22847;42.654;23.370;2023-02-14T07:00:54;95794.97;;;8.10;47.30
36932;BME280;22847;42.654;23.370;2023-02-14T07:03:20;95858.25;;;8.09;47.93
36932;BME280;22847;42.654;23.370;2023-02-14T07:05:45;95856.69;;;7.53;49.33
36932;BME280;22847;42.654;23.370;2023-02-14T07:08:11;95803.06;;;6.98;50.35
36932;BME280;22847;42.654;23.370;2023-02-14T07:10:36;95834.50;;;7.21;50.86
36932;BME280;22847;42.654;23.370;2023-02-14T07:13:02;95844.72;;;7.09;51.20
36932;BME280;22847;42.654;23.370;2023-02-14T07:15:28;95827.34;;;6.83;51.97
36932;BME280;22847;42.654;23.370;2023-02-14T07:17:54;95846.69;;;6.63;53.28
36932;BME280;22847;42.654;23.370;2023-02-14T07:20:19;95744.44;;;5.82;54.39
36932;BME280;22847;42.654;23.370;2023-02-14T07:22:44;95858.53;;;6.39;54.00
36932;BME280;22847;42.654;23.370;2023-02-14T07:25:11;95828.03;;;6.14;56.75
36932;BME280;22847;42.654;23.370;2023-02-14T07:27:37;95864.72;;;6.37;55.08
36932;BME280;22847;42.654;23.370;2023-02-14T07:30:04;95789.81;;;6.04;55.12
36932;BME280;22847;42.654;23.370;2023-02-14T07:32:30;95890.03;;;6.32;55.70
36932;BME280;22847;42.654;23.370;2023-02-14T07:34:55;95825.06;;;6.06;56.20
36932;BME280;22847;42.654;23.370;2023-02-14T07:37:21;95716.13;;;5.21;57.13
36932;BME280;22847;42.654;23.370;2023-02-14T07:39:46;95797.00;;;5.69;58.08
36932;BME280;22847;42.654;23.370;2023-02-14T07:42:11;95704.31;;;5.31;57.48
36932;BME280;22847;42.654;23.370;2023-02-14T07:44:37;95814.34;;;5.82;58.16
36932;BME280;22847;42.654;23.370;2023-02-14T07:47:04;95673.66;;;4.64;58.88
36932;BME280;22847;42.654;23.370;2023-02-14T07:49:30;95803.41;;;5.48;59.23
36932;BME280;22847;42.654;23.370;2023-02-14T07:51:56;95570.00;;;3.93;59.78
36932;BME280;22847;42.654;23.370;2023-02-14T07:54:21;95919.88;;;5.77;60.23
36932;BME280;22847;42.654;23.370;2023-02-14T07:56:46;95682.16;;;4.50;60.52
36932;BME280;22847;42.654;23.370;2023-02-14T07:59:12;95846.22;;;5.53;61.53
36932;BME280;22847;42.654;23.370;2023-02-14T08:01:37;95882.72;;;5.94;60.36
36932;BME280;22847;42.654;23.370;2023-02-14T08:04:03;95779.16;;;5.34;60.13
36932;BME280;22847;42.654;23.370;2023-02-14T08:06:29;95926.06;;;5.91;60.64
36932;BME280;22847;42.654;23.370;2023-02-14T08:08:54;95898.81;;;5.68;61.13
36932;BME280;22847;42.654;23.370;2023-02-14T08:11:19;95887.47;;;6.02;60.51
36932;BME280;22847;42.654;23.370;2023-02-14T08:14:04;95714.41;;;4.90;60.47
36932;BME280;22847;42.654;23.370;2023-02-14T08:16:29;95892.31;;;6.08;60.56
36932;BME280;22847;42.654;23.370;2023-02-14T08:18:58;95945.78;;;5.93;61.38
36932;BME280;22847;42.654;23.370;2023-02-14T08:21:24;95867.88;;;5.66;61.33
36932;BME280;22847;42.654;23.370;2023-02-14T08:23:49;95871.38;;;5.50;61.43
36932;BME280;22847;42.654;23.370;2023-02-14T08:26:14;95775.84;;;5.17;60.81
36932;BME280;22847;42.654;23.370;2023-02-14T08:28:41;95930.63;;;6.01;61.19
36932;BME280;22847;42.654;23.370;2023-02-14T08:31:07;95568.75;;;3.85;61.25
36932;BME280;22847;42.654;23.370;2023-02-14T08:33:32;95705.00;;;4.58;60.60
36932;BME280;22847;42.654;23.370;2023-02-14T08:35:58;95706.59;;;4.45;61.35
36932;BME280;22847;42.654;23.370;2023-02-14T08:38:23;95887.41;;;5.40;62.20
36932;BME280;22847;42.654;23.370;2023-02-14T08:40:48;95887.59;;;5.37;62.35
36932;BME280;22847;42.654;23.370;2023-02-14T08:43:14;95870.41;;;5.36;61.82
36932;BME280;22847;42.654;23.370;2023-02-14T08:45:39;95739.50;;;4.57;62.74
36932;BME280;22847;42.654;23.370;2023-02-14T08:48:10;95905.75;;;5.67;61.89
36932;BME280;22847;42.654;23.370;2023-02-14T08:50:37;95858.03;;;5.42;62.26
36932;BME280;22847;42.654;23.370;2023-02-14T08:53:07;95907.44;;;5.68;62.02
36932;BME280;22847;42.654;23.370;2023-02-14T08:55:33;95865.03;;;5.55;62.09
36932;BME280;22847;42.654;23.370;2023-02-14T08:57:59;95914.84;;;5.59;62.67
36932;BME280;22847;42.654;23.370;2023-02-14T09:00:25;95846.38;;;5.19;63.21
36932;BME280;22847;42.654;23.370;2023-02-14T09:02:51;95907.84;;;5.76;62.41
36932;BME280;22847;42.654;23.370;2023-02-14T09:05:18;95922.56;;;5.45;63.57
36932;BME280;22847;42.654;23.370;2023-02-14T09:07:43;95884.06;;;5.23;63.55
36932;BME280;22847;42.654;23.370;2023-02-14T09:10:09;95648.75;;;4.00;63.53
36932;BME280;22847;42.654;23.370;2023-02-14T09:12:38;95843.66;;;5.22;64.79
36932;BME280;22847;42.654;23.370;2023-02-14T09:15:04;95921.28;;;5.67;63.06
36932;BME280;22847;42.654;23.370;2023-02-14T09:17:29;95824.75;;;5.51;62.64
36932;BME280;22847;42.654;23.370;2023-02-14T09:19:55;95854.59;;;5.72;61.96
36932;BME280;22847;42.654;23.370;2023-02-14T09:22:20;95881.41;;;5.71;62.58
36932;BME280;22847;42.654;23.370;2023-02-14T09:24:46;95842.13;;;5.49;62.28
36932;BME280;22847;42.654;23.370;2023-02-14T09:27:11;95897.06;;;5.68;62.33
36932;BME280;22847;42.654;23.370;2023-02-14T09:29:36;95881.47;;;5.70;62.39
36932;BME280;22847;42.654;23.370;2023-02-14T09:32:02;95888.66;;;5.80;62.46
36932;BME280;22847;42.654;23.370;2023-02-14T09:34:29;95612.13;;;4.41;61.94
36932;BME280;22847;42.654;23.370;2023-02-14T09:36:55;95886.97;;;5.95;61.58
36932;BME280;22847;42.654;23.370;2023-02-14T09:39:39;95833.78;;;5.44;62.18
36932;BME280;22847;42.654;23.370;2023-02-14T09:45:29;95810.09;;;5.20;63.14
36932;BME280;22847;42.654;23.370;2023-02-14T09:48:02;95625.22;;;4.22;62.81
36932;BME280;22847;42.654;23.370;2023-02-14T09:50:46;95879.72;;;5.70;63.01
36932;BME280;22847;42.654;23.370;2023-02-14T09:56:08;95864.50;;;5.96;62.08
36932;BME280;22847;42.654;23.370;2023-02-14T09:58:53;95878.47;;;5.93;61.28
36932;BME280;22847;42.654;23.370;2023-02-14T10:01:25;95821.06;;;5.55;61.42
36932;BME280;22847;42.654;23.370;2023-02-14T10:04:34;95864.84;;;5.74;62.17
36932;BME280;22847;42.654;23.370;2023-02-14T10:07:17;95868.22;;;5.60;62.28
36932;BME280;22847;42.654;23.370;2023-02-14T10:15:03;95860.72;;;5.71;61.46
36932;BME280;22847;42.654;23.370;2023-02-14T10:20:23;95891.69;;;5.26;62.31
36932;BME280;22847;42.654;23.370;2023-02-14T10:22:58;95852.00;;;5.72;62.31
36932;BME280;22847;42.654;23.370;2023-02-14T10:25:50;95684.50;;;4.71;63.96
36932;BME280;22847;42.654;23.370;2023-02-14T10:28:23;95873.69;;;5.85;61.62
36932;BME280;22847;42.654;23.370;2023-02-14T10:33:49;95842.41;;;5.74;61.49
36932;BME280;22847;42.654;23.370;2023-02-14T10:39:16;95865.50;;;5.77;62.08
36932;BME280;22847;42.654;23.370;2023-02-14T10:41:51;95824.09;;;5.77;61.46
36932;BME280;22847;42.654;23.370;2023-02-14T10:50:10;95860.44;;;5.92;60.86
36932;BME280;22847;42.654;23.370;2023-02-14T10:57:54;95799.50;;;5.70;59.85
36932;BME280;22847;42.654;23.370;2023-02-14T11:00:38;95839.28;;;5.99;61.34
36932;BME280;22847;42.654;23.370;2023-02-14T11:03:07;95620.34;;;4.63;61.21
36932;BME280;22847;42.654;23.370;2023-02-14T11:05:40;95643.56;;;4.79;60.52
36932;BME280;22847;42.654;23.370;2023-02-14T11:08:15;95735.38;;;5.46;61.04
36932;BME280;22847;42.654;23.370;2023-02-14T11:10:41;95582.47;;;4.48;60.45
36932;BME280;22847;42.654;23.370;2023-02-14T11:13:43;95843.38;;;6.17;59.84
36932;BME280;22847;42.654;23.370;2023-02-14T11:16:17;95838.81;;;6.37;58.73
36932;BME280;22847;42.654;23.370;2023-02-14T11:18:43;95801.97;;;6.03;59.02
36932;BME280;22847;42.654;23.370;2023-02-14T11:26:02;95827.03;;;6.31;59.02
36932;BME280;22847;42.654;23.370;2023-02-14T11:28:28;95827.56;;;6.08;59.14
36932;BME280;22847;42.654;23.370;2023-02-14T11:30:53;95823.88;;;6.12;59.84
36932;BME280;22847;42.654;23.370;2023-02-14T11:33:38;95808.53;;;6.23;58.62
36932;BME280;22847;42.654;23.370;2023-02-14T11:36:10;95840.19;;;6.28;60.08
36932;BME280;22847;42.654;23.370;2023-02-14T11:38:37;95761.34;;;6.18;57.47
36932;BME280;22847;42.654;23.370;2023-02-14T11:41:07;95838.19;;;6.47;57.64
36932;BME280;22847;42.654;23.370;2023-02-14T11:43:38;95789.78;;;6.34;57.48
36932;BME280;22847;42.654;23.370;2023-02-14T11:46:11;95808.19;;;6.29;57.03
36932;BME280;22847;42.654;23.370;2023-02-14T11:48:38;95799.94;;;6.37;56.75
36932;BME280;22847;42.654;23.370;2023-02-14T11:51:10;95794.94;;;6.19;56.74
36932;BME280;22847;42.654;23.370;2023-02-14T11:53:51;95837.63;;;6.12;56.99
36932;BME280;22847;42.654;23.370;2023-02-14T11:56:20;95789.66;;;6.07;57.07
36932;BME280;22847;42.654;23.370;2023-02-14T11:59:02;95722.53;;;5.74;56.39
36932;BME280;22847;42.654;23.370;2023-02-14T12:01:29;95770.44;;;6.11;57.82
36932;BME280;22847;42.654;23.370;2023-02-14T12:03:58;95562.06;;;5.03;56.29
36932;BME280;22847;42.654;23.370;2023-02-14T12:06:28;95798.34;;;6.06;56.33
36932;BME280;22847;42.654;23.370;2023-02-14T12:09:24;95761.72;;;6.26;55.96
36932;BME280;22847;42.654;23.370;2023-02-14T12:11:58;95530.16;;;4.74;56.70
36932;BME280;22847;42.654;23.370;2023-02-14T12:14:27;95727.53;;;6.07;55.77
36932;BME280;22847;42.654;23.370;2023-02-14T12:17:02;95746.09;;;6.27;56.67
36932;BME280;22847;42.654;23.370;2023-02-14T12:19:38;95768.50;;;6.28;56.11
36932;BME280;22847;42.654;23.370;2023-02-14T12:22:09;95367.84;;;3.94;56.08
36932;BME280;22847;42.654;23.370;2023-02-14T12:27:21;95772.19;;;6.24;56.42
36932;BME280;22847;42.654;23.370;2023-02-14T12:29:52;95763.50;;;6.11;56.71
36932;BME280;22847;42.654;23.370;2023-02-14T12:32:19;95650.06;;;5.60;56.94
36932;BME280;22847;42.654;23.370;2023-02-14T12:34:46;95736.50;;;5.85;58.09
36932;BME280;22847;42.654;23.370;2023-02-14T12:43:16;95737.88;;;6.49;56.28
36932;BME280;22847;42.654;23.370;2023-02-14T12:46:20;95750.09;;;6.47;56.15
36932;BME280;22847;42.654;23.370;2023-02-14T13:05:59;95748.91;;;6.39;56.47
36932;BME280;22847;42.654;23.370;2023-02-14T13:17:04;95731.41;;;6.56;57.27
36932;BME280;22847;42.654;23.370;2023-02-14T13:22:04;95728.59;;;6.59;56.56
36932;BME280;22847;42.654;23.370;2023-02-14T13:24:41;95694.66;;;6.36;56.57
36932;BME280;22847;42.654;23.370;2023-02-14T13:27:15;95734.91;;;6.55;56.76
36932;BME280;22847;42.654;23.370;2023-02-14T13:29:54;95559.97;;;5.38;57.49
36932;BME280;22847;42.654;23.370;2023-02-14T13:32:26;95724.75;;;6.52;57.96
36932;BME280;22847;42.654;23.370;2023-02-14T13:34:53;95605.63;;;5.81;57.31
36932;BME280;22847;42.654;23.370;2023-02-14T13:37:21;95755.56;;;6.43;58.04
36932;BME280;22847;42.654;23.370;2023-02-14T13:39:52;95770.44;;;6.39;57.96
36932;BME280;22847;42.654;23.370;2023-02-14T13:58:46;95730.66;;;6.40;57.76
36932;BME280;22847;42.654;23.370;2023-02-14T14:01:41;95752.75;;;6.74;57.59
36932;BME280;22847;42.654;23.370;2023-02-14T14:17:32;95778.09;;;6.83;57.70
36932;BME280;22847;42.654;23.370;2023-02-14T14:19:59;95784.56;;;6.76;57.28
36932;BME280;22847;42.654;23.370;2023-02-14T14:22:27;95685.31;;;6.47;56.88
36932;BME280;22847;42.654;23.370;2023-02-14T14:24:57;95751.72;;;6.77;56.79
36932;BME280;22847;42.654;23.370;2023-02-14T14:27:59;95739.06;;;6.58;57.39
36932;BME280;22847;42.654;23.370;2023-02-14T14:30:29;95741.56;;;6.59;58.13
36932;BME280;22847;42.654;23.370;2023-02-14T14:33:15;95740.72;;;6.31;58.05
36932;BME280;22847;42.654;23.370;2023-02-14T14:35:51;95761.00;;;6.38;57.97
36932;BME280;22847;42.654;23.370;2023-02-14T14:38:17;95717.13;;;6.35;58.41
36932;BME280;22847;42.654;23.370;2023-02-14T14:40:44;95686.53;;;6.27;57.95
36932;BME280;22847;42.654;23.370;2023-02-14T14:43:18;95711.69;;;6.40;57.94
36932;BME280;22847;42.654;23.370;2023-02-14T14:45:46;95510.47;;;5.16;58.27
36932;BME280;22847;42.654;23.370;2023-02-14T14:48:17;95755.84;;;6.52;57.91
36932;BME280;22847;42.654;23.370;2023-02-14T14:50:46;95754.44;;;6.61;57.61
36932;BME280;22847;42.654;23.370;2023-02-14T14:55:51;95718.78;;;6.64;57.46
36932;BME280;22847;42.654;23.370;2023-02-14T14:58:37;95667.84;;;6.22;57.56
36932;BME280;22847;42.654;23.370;2023-02-14T15:01:06;95721.13;;;6.55;57.60
36932;BME280;22847;42.654;23.370;2023-02-14T15:03:32;95742.75;;;6.54;57.53
36932;BME280;22847;42.654;23.370;2023-02-14T15:08:31;95735.09;;;6.52;57.86
36932;BME280;22847;42.654;23.370;2023-02-14T15:11:00;95693.38;;;6.28;57.74
36932;BME280;22847;42.654;23.370;2023-02-14T15:13:53;95742.50;;;6.44;57.88
36932;BME280;22847;42.654;23.370;2023-02-14T15:16:19;95764.31;;;6.54;57.47
36932;BME280;22847;42.654;23.370;2023-02-14T15:18:46;95518.22;;;5.16;57.55
36932;BME280;22847;42.654;23.370;2023-02-14T15:21:12;95667.13;;;6.06;57.78
36932;BME280;22847;42.654;23.370;2023-02-14T15:23:40;95739.81;;;6.46;57.89
36932;BME280;22847;42.654;23.370;2023-02-14T15:26:14;95712.91;;;6.48;57.33
36932;BME280;22847;42.654;23.370;2023-02-14T15:28:41;95734.06;;;6.41;57.85
36932;BME280;22847;42.654;23.370;2023-02-14T15:31:06;95706.41;;;6.27;57.58
36932;BME280;22847;42.654;23.370;2023-02-14T15:33:33;95708.66;;;6.33;57.60
36932;BME280;22847;42.654;23.370;2023-02-14T15:36:03;95767.31;;;6.48;57.17
36932;BME280;22847;42.654;23.370;2023-02-14T15:38:30;95726.88;;;6.32;57.90